sensor_id;sensor_type;location;lat;lon;timestamp;pressure;altitude;pressure_sealevel;temperature;humidity
71956;BME280;59829;50.562;6.258;2022-10-16T00:00:03;95368.31;;;11.95;100.00
71956;BME280;59829;50.562;6.258;2022-10-16T00:10:04;95365.00;;;11.85;100.00
71956;BME280;59829;50.562;6.258;2022-10-16T00:20:05;95343.50;;;11.86;100.00
71956;BME280;59829;50.562;6.258;2022-10-16T00:30:06;95339.72;;;11.80;100.00
71956;BME280;59829;50.562;6.258;2022-10-16T00:40:08;95336.22;;;11.71;100.00
71956;BME280;59829;50.562;6.258;2022-10-16T00:50:30;95329.19;;;11.73;100.00
71956;BME280;59829;50.562;6.258;2022-10-16T01:00:31;95357.06;;;11.59;100.00
71956;BME280;59829;50.562;6.258;2022-10-16T01:20:51;95373.00;;;11.53;100.00
71956;BME280;59829;50.562;6.258;2022-10-16T01:30:55;95389.88;;;11.55;100.00
71956;BME280;59829;50.562;6.258;2022-10-16T01:41:01;95366.78;;;11.55;100.00
71956;BME280;59829;50.562;6.258;2022-10-16T01:51:08;95376.81;;;11.48;100.00
71956;BME280;59829;50.562;6.258;2022-10-16T02:01:11;95363.00;;;11.59;100.00
71956;BME280;59829;50.562;6.258;2022-10-16T02:11:13;95397.28;;;11.58;100.00
71956;BME280;59829;50.562;6.258;2022-10-16T02:21:29;95404.28;;;11.75;100.00
71956;BME280;59829;50.562;6.258;2022-10-16T02:31:34;95407.66;;;11.86;100.00
71956;BME280;59829;50.562;6.258;2022-10-16T02:41:36;95401.00;;;11.93;100.00
71956;BME280;59829;50.562;6.258;2022-10-16T02:51:36;95382.50;;;12.26;100.00
71956;BME280;59829;50.562;6.258;2022-10-16T03:01:36;95385.00;;;12.08;100.00
71956;BME280;59829;50.562;6.258;2022-10-16T03:11:37;95389.25;;;12.27;100.00
71956;BME280;59829;50.562;6.258;2022-10-16T03:21:37;95387.34;;;12.29;100.00
71956;BME280;59829;50.562;6.258;2022-10-16T03:31:37;95399.81;;;12.24;100.00
71956;BME280;59829;50.562;6.258;2022-10-16T03:41:38;95406.69;;;12.33;100.00
71956;BME280;59829;50.562;6.258;2022-10-16T03:51:38;95399.72;;;12.44;100.00
71956;BME280;59829;50.562;6.258;2022-10-16T04:01:39;95388.41;;;12.36;100.00
71956;BME280;59829;50.562;6.258;2022-10-16T04:11:39;95408.66;;;12.40;100.00
71956;BME280;59829;50.562;6.258;2022-10-16T04:21:39;95414.84;;;12.47;100.00
71956;BME280;59829;50.562;6.258;2022-10-16T04:31:40;95415.59;;;12.29;100.00
71956;BME280;59829;50.562;6.258;2022-10-16T04:41:40;95434.06;;;12.43;100.00
71956;BME280;59829;50.562;6.258;2022-10-16T04:51:40;95441.34;;;12.47;100.00
71956;BME280;59829;50.562;6.258;2022-10-16T05:01:40;95444.25;;;12.34;100.00
71956;BME280;59829;50.562;6.258;2022-10-16T05:11:41;95440.81;;;12.44;100.00
71956;BME280;59829;50.562;6.258;2022-10-16T05:21:41;95457.03;;;12.44;100.00
71956;BME280;59829;50.562;6.258;2022-10-16T05:31:41;95486.00;;;12.36;100.00
71956;BME280;59829;50.562;6.258;2022-10-16T05:41:42;95492.19;;;12.44;100.00
71956;BME280;59829;50.562;6.258;2022-10-16T05:51:43;95521.31;;;12.34;100.00
71956;BME280;59829;50.562;6.258;2022-10-16T06:01:43;95525.78;;;12.32;100.00
71956;BME280;59829;50.562;6.258;2022-10-16T06:11:43;95543.06;;;12.30;100.00
71956;BME280;59829;50.562;6.258;2022-10-16T06:21:43;95553.84;;;12.44;100.00
71956;BME280;59829;50.562;6.258;2022-10-16T06:31:44;95555.47;;;12.45;100.00
71956;BME280;59829;50.562;6.258;2022-10-16T06:41:44;95571.22;;;12.69;100.00
71956;BME280;59829;50.562;6.258;2022-10-16T06:51:45;95577.31;;;12.68;100.00
71956;BME280;59829;50.562;6.258;2022-10-16T07:01:45;95592.03;;;12.76;100.00
71956;BME280;59829;50.562;6.258;2022-10-16T07:11:45;95633.25;;;12.84;100.00
71956;BME280;59829;50.562;6.258;2022-10-16T07:21:46;95630.78;;;12.92;100.00
71956;BME280;59829;50.562;6.258;2022-10-16T07:31:47;95650.28;;;12.94;100.00
71956;BME280;59829;50.562;6.258;2022-10-16T07:41:48;95661.28;;;12.77;100.00
71956;BME280;59829;50.562;6.258;2022-10-16T07:51:48;95670.78;;;13.14;100.00
71956;BME280;59829;50.562;6.258;2022-10-16T08:01:49;95689.50;;;13.06;100.00
71956;BME280;59829;50.562;6.258;2022-10-16T08:11:49;95707.22;;;13.46;100.00
71956;BME280;59829;50.562;6.258;2022-10-16T08:21:50;95717.41;;;13.75;100.00
71956;BME280;59829;50.562;6.258;2022-10-16T08:31:50;95721.63;;;13.94;100.00
71956;BME280;59829;50.562;6.258;2022-10-16T08:42:04;95735.56;;;14.37;100.00
71956;BME280;59829;50.562;6.258;2022-10-16T08:52:12;95719.56;;;14.87;100.00
71956;BME280;59829;50.562;6.258;2022-10-16T09:12:35;95729.78;;;15.22;92.53
71956;BME280;59829;50.562;6.258;2022-10-16T09:22:37;95731.50;;;15.39;88.15
71956;BME280;59829;50.562;6.258;2022-10-16T09:32:38;95734.13;;;15.48;87.39
71956;BME280;59829;50.562;6.258;2022-10-16T09:42:39;95752.03;;;15.75;87.22
71956;BME280;59829;50.562;6.258;2022-10-16T09:52:39;95733.50;;;16.63;80.75
71956;BME280;59829;50.562;6.258;2022-10-16T10:02:39;95722.94;;;17.85;72.92
71956;BME280;59829;50.562;6.258;2022-10-16T10:12:40;95719.66;;;18.22;70.79
71956;BME280;59829;50.562;6.258;2022-10-16T10:22:43;95716.13;;;19.06;67.63
71956;BME280;59829;50.562;6.258;2022-10-16T10:33:09;95708.34;;;19.95;65.81
71956;BME280;59829;50.562;6.258;2022-10-16T10:43:45;95727.66;;;19.71;63.47
71956;BME280;59829;50.562;6.258;2022-10-16T11:14:48;95760.84;;;18.48;66.56
71956;BME280;59829;50.562;6.258;2022-10-16T11:25:13;95765.00;;;19.03;66.92
71956;BME280;59829;50.562;6.258;2022-10-16T11:35:17;95764.47;;;19.30;65.82
71956;BME280;59829;50.562;6.258;2022-10-16T11:45:28;95759.13;;;18.09;69.10
71956;BME280;59829;50.562;6.258;2022-10-16T11:55:34;95750.63;;;18.77;69.72
71956;BME280;59829;50.562;6.258;2022-10-16T12:06:06;95770.75;;;17.66;73.49
71956;BME280;59829;50.562;6.258;2022-10-16T12:26:12;95766.78;;;17.31;77.87
71956;BME280;59829;50.562;6.258;2022-10-16T12:36:30;95770.38;;;17.38;79.05
71956;BME280;59829;50.562;6.258;2022-10-16T12:56:57;95767.78;;;17.38;81.20
71956;BME280;59829;50.562;6.258;2022-10-16T13:07:19;95768.06;;;17.35;85.70
71956;BME280;59829;50.562;6.258;2022-10-16T13:38:14;95766.84;;;18.17;80.52
71956;BME280;59829;50.562;6.258;2022-10-16T13:48:14;95771.91;;;18.95;75.68
71956;BME280;59829;50.562;6.258;2022-10-16T13:58:14;95771.16;;;19.39;74.74
71956;BME280;59829;50.562;6.258;2022-10-16T14:08:15;95773.09;;;18.62;78.24
71956;BME280;59829;50.562;6.258;2022-10-16T14:18:20;95770.31;;;17.70;84.07
71956;BME280;59829;50.562;6.258;2022-10-16T14:28:22;95782.97;;;17.41;88.10
71956;BME280;59829;50.562;6.258;2022-10-16T14:38:23;95779.75;;;17.39;89.48
71956;BME280;59829;50.562;6.258;2022-10-16T14:48:23;95781.38;;;17.24;91.07
71956;BME280;59829;50.562;6.258;2022-10-16T14:58:24;95781.41;;;16.91;94.14
71956;BME280;59829;50.562;6.258;2022-10-16T15:08:26;95787.53;;;16.98;94.51
71956;BME280;59829;50.562;6.258;2022-10-16T15:18:26;95794.31;;;16.83;97.58
71956;BME280;59829;50.562;6.258;2022-10-16T15:28:27;95786.88;;;16.72;98.76
71956;BME280;59829;50.562;6.258;2022-10-16T15:38:28;95784.63;;;16.77;100.00
71956;BME280;59829;50.562;6.258;2022-10-16T15:48:29;95781.22;;;16.68;100.00
71956;BME280;59829;50.562;6.258;2022-10-16T15:58:31;95778.84;;;16.24;100.00
71956;BME280;59829;50.562;6.258;2022-10-16T16:08:32;95784.97;;;16.15;100.00
71956;BME280;59829;50.562;6.258;2022-10-16T16:18:33;95792.50;;;16.01;100.00
71956;BME280;59829;50.562;6.258;2022-10-16T16:28:34;95801.66;;;15.87;100.00
71956;BME280;59829;50.562;6.258;2022-10-16T16:38:34;95801.06;;;15.67;100.00
71956;BME280;59829;50.562;6.258;2022-10-16T16:48:34;95816.22;;;15.62;100.00
71956;BME280;59829;50.562;6.258;2022-10-16T16:58:35;95811.72;;;15.64;100.00
71956;BME280;59829;50.562;6.258;2022-10-16T17:08:36;95826.03;;;15.41;100.00
71956;BME280;59829;50.562;6.258;2022-10-16T17:18:36;95849.66;;;15.46;100.00
71956;BME280;59829;50.562;6.258;2022-10-16T17:28:37;95847.31;;;15.34;100.00
71956;BME280;59829;50.562;6.258;2022-10-16T17:38:37;95859.56;;;15.32;100.00
71956;BME280;59829;50.562;6.258;2022-10-16T17:48:39;95880.84;;;15.34;100.00
71956;BME280;59829;50.562;6.258;2022-10-16T17:58:40;95877.09;;;15.47;100.00
71956;BME280;59829;50.562;6.258;2022-10-16T18:08:40;95866.69;;;15.38;100.00
71956;BME280;59829;50.562;6.258;2022-10-16T18:18:42;95891.75;;;15.46;100.00
71956;BME280;59829;50.562;6.258;2022-10-16T18:28:44;95911.31;;;15.49;100.00
71956;BME280;59829;50.562;6.258;2022-10-16T18:38:44;95915.28;;;15.61;100.00
71956;BME280;59829;50.562;6.258;2022-10-16T18:48:45;95918.53;;;15.63;100.00
71956;BME280;59829;50.562;6.258;2022-10-16T18:58:47;95918.63;;;15.79;100.00
71956;BME280;59829;50.562;6.258;2022-10-16T19:08:48;95927.34;;;15.78;100.00
71956;BME280;59829;50.562;6.258;2022-10-16T19:18:51;95939.28;;;15.79;100.00
71956;BME280;59829;50.562;6.258;2022-10-16T19:28:54;95949.63;;;15.79;100.00
71956;BME280;59829;50.562;6.258;2022-10-16T19:38:58;95939.22;;;15.89;100.00
71956;BME280;59829;50.562;6.258;2022-10-16T19:49:01;95945.72;;;15.75;100.00
71956;BME280;59829;50.562;6.258;2022-10-16T19:59:03;95950.75;;;15.77;100.00
71956;BME280;59829;50.562;6.258;2022-10-16T20:09:04;95959.25;;;15.69;100.00
71956;BME280;59829;50.562;6.258;2022-10-16T20:19:05;95950.31;;;15.81;100.00
71956;BME280;59829;50.562;6.258;2022-10-16T20:29:05;95964.22;;;15.88;100.00
71956;BME280;59829;50.562;6.258;2022-10-16T20:39:06;95966.78;;;15.80;100.00
71956;BME280;59829;50.562;6.258;2022-10-16T20:49:07;95956.84;;;15.93;100.00
71956;BME280;59829;50.562;6.258;2022-10-16T20:59:09;95949.16;;;16.02;100.00
71956;BME280;59829;50.562;6.258;2022-10-16T21:09:10;95956.78;;;15.85;100.00
71956;BME280;59829;50.562;6.258;2022-10-16T21:19:10;95945.06;;;15.73;100.00
71956;BME280;59829;50.562;6.258;2022-10-16T21:29:11;95942.94;;;15.51;100.00
71956;BME280;59829;50.562;6.258;2022-10-16T21:39:14;95960.28;;;15.41;100.00
71956;BME280;59829;50.562;6.258;2022-10-16T21:49:17;95955.72;;;15.34;100.00
71956;BME280;59829;50.562;6.258;2022-10-16T21:59:18;95955.50;;;15.28;100.00
71956;BME280;59829;50.562;6.258;2022-10-16T22:09:19;95967.66;;;15.35;100.00
71956;BME280;59829;50.562;6.258;2022-10-16T22:19:20;95960.78;;;15.26;100.00
71956;BME280;59829;50.562;6.258;2022-10-16T22:29:21;95962.03;;;15.22;100.00
71956;BME280;59829;50.562;6.258;2022-10-16T22:39:21;95969.41;;;15.17;100.00
71956;BME280;59829;50.562;6.258;2022-10-16T22:49:22;95976.78;;;15.12;100.00
71956;BME280;59829;50.562;6.258;2022-10-16T22:59:23;95975.16;;;15.11;100.00
71956;BME280;59829;50.562;6.258;2022-10-16T23:09:23;95979.88;;;15.16;100.00
71956;BME280;59829;50.562;6.258;2022-10-16T23:19:24;95982.16;;;15.19;100.00
71956;BME280;59829;50.562;6.258;2022-10-16T23:29:24;95977.81;;;15.19;100.00
71956;BME280;59829;50.562;6.258;2022-10-16T23:39:24;95988.59;;;15.32;100.00
71956;BME280;59829;50.562;6.258;2022-10-16T23:49:25;95998.78;;;15.34;100.00
71956;BME280;59829;50.562;6.258;2022-10-16T23:59:25;95992.66;;;15.35;100.00
